Vliegveldwaarnemingen Nederland - (AUTO) METAR

Luchtvaartmeteorologische informatie voor operationeel gebruik en vluchtvoorbereiding is beschikbaar op www.luchtvaartmeteo.nl.

ZCZC
SA250355 EHKD     DE KOOY/DE KOOY   NLD   1 m.
METAR EHKD 250355Z AUTO 09007KT 4500 BR FEW003 SCT007 OVC011 14/14
Q1022 GRN=

ZCZC
SA250355 EHFD     F3-FB-1   NLD   50 m.
METAR EHFD 250355Z AUTO 10014KT 9999 FEW009/// 16/14 Q1023=

ZCZC
SA250355 EHAM     AMSTERDAM/SCHIPHOL   NLD   -3 m.
METAR EHAM 250355Z 09008KT 4000 BR FEW003 BKN004 13/13 Q1021 TEMPO
2500=

ZCZC
SA250355 EHVL     VLIELAND   NLD   10 m.
METAR EHVL 250355Z AUTO 11009KT 3200 BR OVC003 14/13 Q1022 YLO=

ZCZC
SA250355 EHJR     K13-A   NLD   37 m.
METAR EHJR 250355Z NIL=

ZCZC
SA250355 EHLW     LEEUWARDEN/LEEUWARDEN   NLD   1 m.
METAR EHLW 250355Z AUTO 09005KT 050V140 2300 R23/2600D BR FEW000
BKN002 OVC003 13/13 Q1023 AMB=

ZCZC
SA250355 EHDL     ARNHEM/DEELEN   NLD   48 m.
METAR EHDL 250355Z AUTO 07004KT 010V100 3300 R20/P3000N BR OVC012
13/13 Q1021 YLO=

ZCZC
SA250355 EHSC     LICHTEILAND GOEREE   NLD   22 m.
METAR EHSC 250355Z NIL=

ZCZC
SA250355 EHSA     EURO PLATFORM   NLD   19 m.
METAR EHSA 250355Z NIL=

ZCZC
SA250355 EHWO     WOENSDRECHT/WOENSDRECHT   NLD   19 m.
METAR EHWO 250355Z AUTO 08004KT 2200 BR OVC370 09/09 Q1020 YLO=

ZCZC
SA250355 EHRD     ROTTERDAM/THE HAGUE AIRPORT   NLD   -5 m.
METAR EHRD 250355Z AUTO 09007KT 3500 BR NCD 12/11 Q1021 TEMPO 0400
BCFG=

ZCZC
SA250355 EHGR     GILZE-RIJEN/GILZE-RIJEN   NLD   14 m.
METAR EHGR 250355Z AUTO 08006KT 050V110 2700 BR NCD 10/10 Q1020 YLO=

ZCZC
SA250355 EHVK     VOLKEL/VOLKEL   NLD   21 m.
METAR EHVK 250355Z AUTO 05003KT 0350 R24R/1000U FG FEW013 SCT410
09/09 Q1021 RED=

ZCZC
SA250355 EHFZ     F16-A   NLD   43 m.
METAR EHFZ 250355Z AUTO 12011KT 9999 FEW007 16/14 Q1022=

ZCZC
SA250355 EHKV     K14-FA-1C   NLD   41 m.
METAR EHKV 250355Z AUTO 11012KT 9000 SCT006 16/14 Q1022=

ZCZC
SA250355 EHMG     L9-FF-1   NLD   44 m.
METAR EHMG 250355Z AUTO 12012KT 8000 SCT006 SCT008 BKN009 16/14
Q1022=

ZCZC
SA250355 EHMA     AWG-1   NLD   40 m.
METAR EHMA 250355Z AUTO 11010KT 2300 BR BKN001 OVC002 14/13 Q1023=

ZCZC
SA250355 EHDV     D15-FA-1   NLD   42 m.
METAR EHDV 250355Z AUTO 12016KT 9999 NCD 15/14 Q////=

ZCZC
SA250355 EHAK     A12-CPP   NLD   48 m.
METAR EHAK 250355Z AUTO 10016KT 9999 FEW021/// 16/14 Q1023=

ZCZC
SA250355 EHQE     HOORN-A   NLD   50 m.
METAR EHQE 250355Z AUTO ///18KT 5000 BR SCT004 BKN005 15/13 Q1021=

ZCZC
SA250355 EHJA     J6-A   NLD   45 m.
METAR EHJA 250355Z AUTO 12016KT 080V150 9999 NCD 16/14 Q1022=

ZCZC
SA250355 EHPG     P11-B   NLD   41 m.
METAR EHPG 250355Z AUTO 10016KT 9999 NCD 16/14 Q1020=

ZCZC
SA250355 EHHW     BUITENGAATS/BG-OHVS2      42 m.
METAR EHHW 250355Z AUTO 13010KT 100V160 9999 ///////// 16/13 Q1023=

ZCZC
SA250355 EHGG CCA GRONINGEN/EELDE   NLD   5 m.
METAR COR EHGG 250355Z AUTO 11004KT 080V140 2700 BR BKN003 OVC004
13/13 Q1022 NOSIG=

ZCZC
SA250355 EHFS     VLISSINGEN AWS   NLD   8 m.
METAR EHFS 250355Z AUTO 08007KT 050V130 4500 BR NCD 14/12 Q1020=

ZCZC
SA250355 EHEH CCB EINDHOVEN/EINDHOVEN   NLD   22 m.
METAR COR EHEH 250355Z AUTO 07006KT 1900 BR NSC 11/11 Q1021 YLO=

ZCZC
SA250355 EHBK CCB MAASTRICHT/MAASTRICHT-AACHEN   NLD   114 m.
METAR COR EHBK 250355Z AUTO 12003KT 1600 BR NSC 09/09 Q1020 NOSIG=

25/09/2017 06.15 uur LT